Marfa, TX (79843)

1:10 PM CDT on April 27, 2017 (GMT -0500)
Marfa Municipal | | Change Station
Active Advisory: Fire Weather Warning

Elev 4849 ft 30.37 °N, 104.02 °W | Updated 14 minutes ago

Clear
Clear
81 °F
Feels Like 81 °F
N
16
Wind Variable Wind from WSW
Gusts 26 mph

Today
High -- | Low -- °F
--% Chance of Precip.
Yesterday
High -- | Low -- °F
Precip. -- in
Pressure 29.69 in
Visibility 10.0 miles
Clouds Clear
Dew Point 33 °F
Humidity 18%
Rainfall 0.00 in
Snow Depth Not available.
7:16 AM 8:31 PM
New Moon, 2% visible
METAR KMRF 271756Z AUTO 24014G23KT 200V270 10SM CLR 27/01 A2983 RMK AO2 PK WND 22027/1721 SLP053 6//// T02720006 10272 20117 58013
Pressure 29.69 in
Visibility 10.0 miles
Clouds Clear
Dew Point 33 °F
Humidity 18%
Rainfall 0.00 in
Snow Depth Not available.
7:16 AM 8:31 PM
New Moon, 2% visible
METAR KMRF 271756Z AUTO 24014G23KT 200V270 10SM CLR 27/01 A2983 RMK AO2 PK WND 22027/1721 SLP053 6//// T02720006 10272 20117 58013

Get Your Daily Forecast Email!

Thanks for signing up!

Be on the lookout for a verification email in your inbox.

You'll start receiving severe weather alerts in your inbox..

×

10-Day Weather Forecast

Almanac

Astronomy

Apr. 27, 2017 Rise Set
Actual Time
Civil Twilight
Nautical Twilight
Astronomical Twilight
Moon
Length of Visible Light
Length of Day
Tomorrow will be .
, % of the Moon is Illuminated

Today's Extremes

State Highs State Lows

Community

WunderPhotos

WunderBlog® & News

Nearby

Air Quality

  Air Quality AQ Index Pollutant
Not available.

Snow Depth

Station Depth Elevation

Earthquake Activity

City Distance Mag. Time & Date
Minimum magnitude displayed is 2.5.

Coastal Water Temperatures

Place Temperature

Stations

Nearby Weather Stations

Station Location Temp. Windchill Dew Point Humidity Wind Precip. Elev Updated Type
                   

Watches & Warnings

Fire Weather Warning
Issued: 4:25 AM MDT Apr. 27, 2017 – National Weather Service

... Red flag warning now in effect from 1 PM CDT /noon MDT/ this
afternoon to 10 PM CDT /9 PM MDT/ this evening for relative
humidity of 15% or less, 20 ft winds of 20 mph or more, and high
to extreme fire danger...

* humidity... 8 to 15%.

* Fire danger... high to extreme.

* Impacts... any fires that develop will likely spread rapidly.

Precautionary/preparedness actions...

Avoid the use of open flames or any activities that may generate
Sparks.